Ile Loop Chesterfield, New Caledonia
Current Conditions -  °F | °C
As of 3:30 PM on Wednesday 22 Oct 2014 (Local Time) from NWWW Reporting Station
Broken Clouds Broken Clouds  
Wind Chill: 73°   Ceiling: 5200
Heat Index: 73°   Visibility: 6mi
Dew Point: 57°   Wind: 18mph
Humidity: 57%   Direction: 130°SE
Pressure: 29.94"   Gusts: NA
Location:  19.97°S, 158.52°E
Report Text: NWWW 220430Z AUTO 13016KT 100V160 9999 BKN052/// BKN062///23/14 Q1014
Loading
Personal Weather Stations






























Interactive Weather Map
Tropical Storm Tracking
New forecast layout! Learn more

10-Day Weather Forecast

Advertisements
Track Severe Weather on mobile